CheckWX is a tool to help pilots better visualize weather data.  It is not intended as a substitute for an official pre-flight weather briefing.

03:11:38 UTC

KACY METAR
Atlantic City International Airport
Atlantic City, New Jersey, USA
Current

18 mins ago

KACY 260254Z 17009KT 10SM OVC110 17/14 A3009 RMK AO2 SLP189 T01720144 56018
Observed
May-26 @ 02:54 UTC
Wind
  • 170° at 9 KTS
Visibility
10 SM
Flight Rules
VFR
Cloud Levels
  • Overcast at 11,000' AGL
Temperature
17°C / 63°F
Dewpoint
14°C / 57°F
Humidity
83%
Altimeter
30.09" Hg
Pressure
1018.92 hPa
Previous

1 hour ago

KACY 260154Z 17008G20KT 10SM FEW090 SCT120 17/14 A3010 RMK AO2 SLP192 T01670139
Observed
May-26 @ 01:54 UTC
Wind
  • 170° at 8 KTS
  • Gusting to 20 KTS
Visibility
10 SM
Flight Rules
VFR
Cloud Levels
  • Few at 9,000' AGL
  • Scattered at 12,000' AGL
Temperature
17°C / 63°F
Dewpoint
14°C / 57°F
Humidity
83%
Altimeter
30.1" Hg
Pressure
1019.32 hPa
Previous

2 hours ago

KACY 260054Z 16009KT 10SM CLR 17/13 A3011 RMK AO2 SLP194 T01670133
Observed
May-26 @ 00:54 UTC
Wind
  • 160° at 9 KTS
Visibility
10 SM
Flight Rules
VFR
Cloud Levels
  • Clear skies
Temperature
17°C / 63°F
Dewpoint
13°C / 55°F
Humidity
77%
Altimeter
30.11" Hg
Pressure
1019.62 hPa